createdAt,value
2022-12-12T20:29:45.370Z,37.90
2022-12-12T20:30:48.587Z,43.00
2022-12-12T20:31:45.936Z,42.80
2022-12-12T20:32:46.262Z,42.00
2022-12-12T20:33:46.612Z,40.40
2022-12-12T20:34:46.891Z,43.00
2022-12-12T20:35:47.254Z,45.00
2022-12-12T20:36:47.717Z,43.60
2022-12-12T20:37:47.859Z,41.00
2022-12-12T20:38:48.157Z,43.40
2022-12-12T20:39:48.479Z,43.00
2022-12-12T20:40:48.777Z,43.90
2022-12-12T20:41:49.144Z,41.80
2022-12-12T20:42:55.955Z,41.90
2022-12-12T20:43:49.687Z,42.70
2022-12-12T20:44:50.043Z,43.40
2022-12-12T20:45:50.397Z,43.10
2022-12-12T20:46:50.687Z,44.30
2022-12-12T20:47:50.966Z,45.30
2022-12-12T20:48:51.518Z,42.90
2022-12-12T20:49:51.616Z,42.70
2022-12-12T20:50:51.940Z,44.20
2022-12-12T20:51:55.819Z,42.40
2022-12-12T20:52:52.590Z,43.70
2022-12-12T20:53:52.921Z,41.90
2022-12-12T20:54:53.253Z,41.00
2022-12-12T20:55:53.576Z,49.20
2022-12-12T20:56:53.997Z,44.40
2022-12-12T20:57:54.241Z,43.40
2022-12-12T20:58:54.864Z,43.90
2022-12-12T20:59:55.019Z,41.30
2022-12-12T21:00:55.218Z,46.20
2022-12-12T21:01:55.781Z,49.30
2022-12-12T21:02:55.962Z,46.40
2022-12-12T21:03:56.355Z,48.80
2022-12-12T21:04:56.519Z,97.60
2022-12-12T21:05:56.836Z,100.90
2022-12-12T21:06:57.242Z,85.40
2022-12-12T21:07:57.703Z,82.00
2022-12-12T21:08:57.880Z,84.60
2022-12-12T21:09:58.318Z,85.00
2022-12-12T21:10:58.610Z,93.80
2022-12-12T21:11:58.974Z,89.70
2022-12-12T21:12:59.158Z,79.40
2022-12-12T21:13:59.498Z,64.60
2022-12-12T21:15:02.997Z,68.00
2022-12-12T21:16:00.303Z,59.30
2022-12-12T21:17:00.423Z,64.60
2022-12-12T21:18:00.777Z,63.40
2022-12-12T21:19:01.068Z,54.30
2022-12-12T21:20:06.304Z,56.70
2022-12-12T21:21:01.726Z,51.90
2022-12-12T21:22:02.054Z,49.90
2022-12-12T21:23:02.469Z,45.50
2022-12-12T21:24:02.689Z,44.70
2022-12-12T21:25:03.113Z,43.30
2022-12-12T21:26:03.320Z,45.70
2022-12-12T21:27:03.862Z,44.50
2022-12-12T21:28:04.103Z,45.30
2022-12-12T21:29:04.519Z,46.50
2022-12-12T21:30:04.813Z,44.00
2022-12-12T21:31:05.108Z,42.20
2022-12-12T21:32:05.287Z,43.90
2022-12-12T21:33:05.611Z,41.90
2022-12-12T21:34:06.052Z,42.70
2022-12-12T21:35:06.282Z,42.50
2022-12-12T21:36:06.621Z,44.10
2022-12-12T21:37:06.955Z,40.10
2022-12-12T21:38:07.291Z,42.00
2022-12-12T21:39:07.657Z,42.60
2022-12-12T21:40:08.093Z,42.40
2022-12-12T21:41:08.316Z,42.90
2022-12-12T21:42:08.646Z,43.10
2022-12-12T21:43:08.997Z,40.70
2022-12-12T21:44:09.384Z,43.10
2022-12-12T21:45:09.693Z,43.70
2022-12-12T21:46:10.394Z,44.10
2022-12-12T21:47:10.353Z,44.20
2022-12-12T21:48:10.693Z,44.30
2022-12-12T21:49:11.058Z,43.80
2022-12-12T21:50:11.475Z,45.30
2022-12-12T21:51:12.048Z,45.50
2022-12-12T21:52:12.331Z,43.70
2022-12-12T21:53:12.495Z,43.30
2022-12-12T21:54:12.867Z,41.50
2022-12-12T21:55:13.572Z,43.80
2022-12-12T21:56:13.624Z,46.00
2022-12-12T21:57:13.972Z,44.00
2022-12-12T21:58:14.309Z,45.00
2022-12-12T21:59:14.676Z,45.90
2022-12-12T22:00:15.170Z,41.80
2022-12-12T22:01:15.587Z,45.80
2022-12-12T22:02:15.788Z,44.70
2022-12-12T22:03:16.362Z,44.80
2022-12-12T22:04:16.920Z,46.40
2022-12-12T22:05:17.172Z,48.40
2022-12-12T22:06:17.279Z,49.80
2022-12-12T22:07:17.669Z,48.20
2022-12-12T22:08:18.128Z,49.20
2022-12-12T22:09:18.473Z,48.80
2022-12-12T22:10:18.797Z,49.30
2022-12-12T22:11:23.827Z,48.00
2022-12-12T22:12:19.543Z,45.50
2022-12-12T22:13:20.056Z,50.10
2022-12-12T22:14:20.355Z,49.20
2022-12-12T22:15:20.702Z,48.80
2022-12-12T22:16:21.128Z,50.50
2022-12-12T22:17:21.440Z,51.70
2022-12-12T22:18:21.815Z,51.60
2022-12-12T22:19:22.429Z,50.10
2022-12-12T22:20:22.581Z,48.30
2022-12-12T22:21:22.982Z,49.30
2022-12-12T22:22:23.385Z,51.70
2022-12-12T22:23:23.891Z,49.50
2022-12-12T22:24:24.118Z,51.00
2022-12-12T22:25:24.564Z,46.60
2022-12-12T22:26:24.809Z,48.40
2022-12-12T22:27:25.231Z,47.30
2022-12-12T22:28:25.552Z,48.10
2022-12-12T22:29:25.920Z,48.00
2022-12-12T22:30:26.296Z,49.80
2022-12-12T22:31:26.731Z,44.80
2022-12-12T22:32:27.228Z,45.50
2022-12-12T22:33:27.487Z,48.50
2022-12-12T22:34:27.981Z,47.30
2022-12-12T22:35:28.234Z,46.60
2022-12-12T22:36:28.821Z,48.90
2022-12-12T22:37:29.025Z,47.80
2022-12-12T22:38:29.755Z,47.00
2022-12-12T22:39:29.576Z,47.70
2022-12-12T22:40:29.948Z,46.60
2022-12-12T22:41:30.388Z,46.50
2022-12-12T22:42:30.698Z,48.40
2022-12-12T22:43:31.076Z,47.50
2022-12-12T22:44:31.435Z,43.90
2022-12-12T22:45:31.850Z,45.90
2022-12-12T22:46:32.225Z,47.20
2022-12-12T22:47:32.886Z,45.10
2022-12-12T22:48:32.899Z,46.20
2022-12-12T22:49:33.251Z,46.80
2022-12-12T22:50:33.620Z,46.20
2022-12-12T22:51:34.009Z,47.20
2022-12-12T22:52:34.536Z,47.00
2022-12-12T22:53:39.462Z,46.30
2022-12-12T22:54:35.224Z,47.40
2022-12-12T22:55:35.474Z,44.40
2022-12-12T22:56:35.855Z,47.90
2022-12-12T22:57:36.501Z,49.00
2022-12-12T22:58:36.585Z,47.00
2022-12-12T22:59:36.963Z,46.90
2022-12-12T23:00:37.355Z,46.20
2022-12-12T23:01:37.704Z,44.50
2022-12-12T23:02:38.120Z,48.50
2022-12-12T23:03:38.453Z,47.00
2022-12-12T23:04:38.912Z,46.40
2022-12-12T23:05:39.372Z,47.70
2022-12-12T23:06:39.566Z,48.40
2022-12-12T23:07:39.951Z,44.30
2022-12-12T23:08:40.289Z,45.70
2022-12-12T23:09:40.648Z,46.00
2022-12-12T23:10:40.999Z,44.10
2022-12-12T23:11:41.352Z,44.80
2022-12-12T23:12:41.754Z,46.70
2022-12-12T23:13:42.069Z,44.90
2022-12-12T23:14:42.422Z,46.10
2022-12-12T23:15:42.808Z,45.70
2022-12-12T23:16:43.308Z,46.10
2022-12-12T23:17:43.707Z,44.10
2022-12-12T23:18:43.908Z,45.70
2022-12-12T23:19:44.237Z,44.30
2022-12-12T23:20:44.627Z,45.50
2022-12-12T23:21:44.958Z,49.10
2022-12-12T23:22:45.337Z,45.90
2022-12-12T23:23:45.702Z,44.70
2022-12-12T23:24:46.112Z,44.50
2022-12-12T23:25:46.418Z,44.20
2022-12-12T23:26:46.776Z,46.10
2022-12-12T23:27:47.306Z,44.70
2022-12-12T23:28:47.526Z,43.90
2022-12-12T23:29:47.862Z,49.00
2022-12-12T23:30:48.223Z,45.50
2022-12-12T23:31:48.654Z,48.40
2022-12-12T23:32:48.935Z,45.90
2022-12-12T23:33:49.327Z,46.90
2022-12-12T23:34:49.685Z,45.60
2022-12-12T23:35:50.055Z,47.90
2022-12-12T23:36:50.452Z,47.70
2022-12-12T23:37:50.777Z,46.00
2022-12-12T23:38:51.163Z,47.20
2022-12-12T23:39:51.524Z,48.00
2022-12-12T23:40:51.908Z,47.40
2022-12-12T23:41:52.487Z,46.70
2022-12-12T23:42:52.655Z,45.70
2022-12-12T23:43:53.032Z,47.50
2022-12-12T23:44:53.411Z,49.20
2022-12-12T23:45:53.900Z,48.70
2022-12-12T23:46:54.251Z,48.30
2022-12-12T23:47:54.530Z,50.00
2022-12-12T23:48:54.895Z,50.60
2022-12-12T23:49:55.268Z,47.80
2022-12-12T23:50:55.649Z,48.40
2022-12-12T23:51:56.061Z,48.50
2022-12-12T23:52:56.385Z,49.70
2022-12-12T23:53:56.744Z,51.00
2022-12-12T23:54:57.105Z,48.90
2022-12-12T23:55:57.473Z,49.00
2022-12-12T23:56:57.869Z,46.30
2022-12-12T23:57:58.216Z,53.90
2022-12-12T23:58:58.594Z,51.00
2022-12-12T23:59:58.965Z,51.20
